createdAt,value
2022-07-29T00:02:25.424Z,1.70
2022-07-29T00:04:51.870Z,1.30
2022-07-29T00:07:21.299Z,1.43
2022-07-29T00:09:52.084Z,1.40
2022-07-29T00:12:25.672Z,1.60
2022-07-29T00:14:53.753Z,1.70
2022-07-29T00:17:20.107Z,1.67
2022-07-29T00:19:46.618Z,1.73
2022-07-29T00:22:12.924Z,1.60
2022-07-29T00:24:39.288Z,1.40
2022-07-29T00:27:05.882Z,1.90
2022-07-29T00:29:34.164Z,1.65
2022-07-29T00:32:01.534Z,1.70
2022-07-29T00:34:46.467Z,1.48
2022-07-29T00:37:12.750Z,1.85
2022-07-29T00:39:39.056Z,1.63
2022-07-29T00:42:05.726Z,1.73
2022-07-29T00:44:36.708Z,1.58
2022-07-29T00:47:03.078Z,1.55
2022-07-29T00:49:29.657Z,1.90
2022-07-29T00:51:55.982Z,1.50
2022-07-29T00:54:22.565Z,1.55
2022-07-29T00:56:49.093Z,1.63
2022-07-29T00:59:15.451Z,1.55
2022-07-29T01:01:41.868Z,1.63
2022-07-29T01:04:08.388Z,1.60
2022-07-29T01:06:35.310Z,1.65
2022-07-29T01:09:02.346Z,2.10
2022-07-29T01:11:28.853Z,1.77
2022-07-29T01:13:55.364Z,2.13
2022-07-29T01:16:36.948Z,1.52
2022-07-29T01:19:38.835Z,1.67
2022-07-29T01:22:19.819Z,1.80
2022-07-29T01:24:58.159Z,1.90
2022-07-29T01:27:44.754Z,1.90
2022-07-29T01:30:13.082Z,1.73
2022-07-29T01:32:42.541Z,1.58
2022-07-29T01:35:24.253Z,1.95
2022-07-29T01:38:00.784Z,1.75
2022-07-29T01:40:29.904Z,1.65
2022-07-29T01:42:57.744Z,1.90
2022-07-29T01:45:26.848Z,2.10
2022-07-29T01:47:53.126Z,1.90
2022-07-29T01:50:20.445Z,1.63
2022-07-29T01:52:50.768Z,1.80
2022-07-29T01:55:21.340Z,1.80
2022-07-29T01:57:50.059Z,2.00
2022-07-29T02:00:16.956Z,1.75
2022-07-29T02:02:44.673Z,1.70
2022-07-29T02:05:13.487Z,2.15
2022-07-29T02:07:41.141Z,1.83
2022-07-29T02:10:08.172Z,1.63
2022-07-29T02:12:34.521Z,2.00
2022-07-29T02:15:02.055Z,2.17
2022-07-29T02:17:30.086Z,2.13
2022-07-29T02:19:57.793Z,2.40
2022-07-29T02:22:25.095Z,2.17
2022-07-29T02:27:19.863Z,2.15
2022-07-29T02:29:49.248Z,2.08
2022-07-29T02:32:18.618Z,2.40
2022-07-29T02:34:45.761Z,2.83
2022-07-29T02:37:12.642Z,2.10
2022-07-29T02:39:40.291Z,2.30
2022-07-29T02:42:08.257Z,2.40
2022-07-29T02:44:35.389Z,2.50
2022-07-29T02:47:21.953Z,2.22
2022-07-29T02:50:09.246Z,2.40
2022-07-29T02:52:48.476Z,2.50
2022-07-29T02:55:14.774Z,2.38
2022-07-29T02:57:54.819Z,2.55
2022-07-29T03:00:22.530Z,2.25
2022-07-29T03:02:53.238Z,2.35
2022-07-29T03:05:20.676Z,2.35
2022-07-29T03:07:48.721Z,2.50
2022-07-29T03:10:15.197Z,2.72
2022-07-29T03:12:42.275Z,2.45
2022-07-29T03:15:09.319Z,2.80
2022-07-29T03:17:38.083Z,2.22
2022-07-29T03:20:08.600Z,2.53
2022-07-29T03:22:39.623Z,2.58
2022-07-29T03:25:09.621Z,2.40
2022-07-29T03:27:38.047Z,2.30
2022-07-29T03:30:04.924Z,2.88
2022-07-29T03:32:35.656Z,2.53
2022-07-29T03:35:02.039Z,2.50
2022-07-29T03:37:28.566Z,2.93
2022-07-29T03:39:56.722Z,2.58
2022-07-29T03:42:25.059Z,3.03
2022-07-29T03:44:52.846Z,2.50
2022-07-29T03:47:23.211Z,2.70
2022-07-29T03:50:11.220Z,2.72
2022-07-29T03:52:37.621Z,2.70
2022-07-29T03:55:04.598Z,2.50
2022-07-29T03:57:31.702Z,2.60
2022-07-29T03:59:58.565Z,2.55
2022-07-29T04:02:30.514Z,2.38
2022-07-29T04:04:57.220Z,2.53
2022-07-29T04:07:23.517Z,2.40
2022-07-29T04:09:49.892Z,3.40
2022-07-29T04:12:16.286Z,3.10
2022-07-29T04:14:42.602Z,3.00
2022-07-29T04:17:08.909Z,2.40
2022-07-29T04:19:35.275Z,2.33
2022-07-29T04:22:02.040Z,2.50
2022-07-29T04:24:28.794Z,2.67
2022-07-29T04:26:55.290Z,2.38
2022-07-29T04:29:21.826Z,2.92
2022-07-29T04:31:48.223Z,2.70
2022-07-29T04:34:14.891Z,2.53
2022-07-29T04:36:41.461Z,2.78
2022-07-29T04:39:07.766Z,2.60
2022-07-29T04:41:34.544Z,2.57
2022-07-29T04:44:07.022Z,2.72
2022-07-29T04:46:34.037Z,2.38
2022-07-29T04:49:00.530Z,2.72
2022-07-29T04:51:26.954Z,2.75
2022-07-29T04:53:53.270Z,2.70
2022-07-29T04:56:19.578Z,2.57
2022-07-29T04:58:45.877Z,2.75
2022-07-29T05:01:12.304Z,2.45
2022-07-29T05:03:38.647Z,2.55
2022-07-29T05:06:05.040Z,2.70
2022-07-29T05:08:31.410Z,2.20
2022-07-29T05:10:57.744Z,2.53
2022-07-29T05:13:24.439Z,2.33
2022-07-29T05:15:50.948Z,2.65
2022-07-29T05:18:19.841Z,2.67
2022-07-29T05:20:52.406Z,2.50
2022-07-29T05:23:21.809Z,2.88
2022-07-29T05:25:48.242Z,2.85
2022-07-29T05:28:15.087Z,2.53
2022-07-29T05:30:41.495Z,2.70
2022-07-29T05:33:07.851Z,2.63
2022-07-29T05:35:35.978Z,3.03
2022-07-29T05:38:02.284Z,2.80
2022-07-29T05:40:28.678Z,2.47
2022-07-29T05:42:55.046Z,2.97
2022-07-29T05:45:21.415Z,3.17
2022-07-29T05:47:47.897Z,3.43
2022-07-29T05:50:14.797Z,4.68
2022-07-29T05:52:44.710Z,3.00
2022-07-29T05:55:11.020Z,2.63
2022-07-29T05:57:37.340Z,2.60
2022-07-29T06:00:04.242Z,2.80
2022-07-29T06:02:30.685Z,2.65
2022-07-29T06:04:58.316Z,3.03
2022-07-29T06:07:24.668Z,2.75
2022-07-29T06:09:51.006Z,2.70
2022-07-29T06:12:19.918Z,2.90
2022-07-29T06:14:48.909Z,3.40
2022-07-29T06:17:19.695Z,3.10
2022-07-29T06:19:46.090Z,3.22
2022-07-29T06:22:12.375Z,2.83
2022-07-29T06:24:42.432Z,3.42
2022-07-29T06:27:08.718Z,3.53
2022-07-29T06:29:35.148Z,3.88
2022-07-29T06:32:01.670Z,3.23
2022-07-29T06:34:28.016Z,3.05
2022-07-29T06:36:54.549Z,3.72
2022-07-29T06:39:21.528Z,3.58
2022-07-29T06:41:51.389Z,3.30
2022-07-29T06:44:21.253Z,3.85
2022-07-29T06:46:50.114Z,4.25
2022-07-29T06:49:16.800Z,3.40
2022-07-29T06:51:43.202Z,3.40
2022-07-29T06:54:09.567Z,3.65
2022-07-29T06:56:40.440Z,4.00
2022-07-29T06:59:07.338Z,4.10
2022-07-29T07:01:33.728Z,3.85
2022-07-29T07:04:00.118Z,3.67
2022-07-29T07:06:26.429Z,4.17
2022-07-29T07:08:52.759Z,4.18
2022-07-29T07:11:19.060Z,4.28
2022-07-29T07:13:45.407Z,4.18
2022-07-29T07:16:11.770Z,3.92
2022-07-29T07:18:38.213Z,4.43
2022-07-29T07:21:05.971Z,4.13
2022-07-29T07:23:36.059Z,3.65
2022-07-29T07:26:02.457Z,4.30
2022-07-29T07:28:28.817Z,3.80
2022-07-29T07:30:55.225Z,3.87
2022-07-29T07:33:21.723Z,3.90
2022-07-29T07:35:48.204Z,4.03
2022-07-29T07:38:14.692Z,4.63
2022-07-29T07:40:41.288Z,4.15
2022-07-29T07:43:07.656Z,4.32
2022-07-29T07:45:34.096Z,4.20
2022-07-29T07:48:00.636Z,4.38
2022-07-29T07:50:27.053Z,4.05
2022-07-29T07:52:54.512Z,3.90
2022-07-29T07:55:20.936Z,4.28
2022-07-29T07:57:49.909Z,4.17
2022-07-29T08:00:17.458Z,4.03
2022-07-29T08:02:44.135Z,4.50
2022-07-29T08:05:12.615Z,4.32
2022-07-29T08:07:39.390Z,4.55
2022-07-29T08:10:06.005Z,4.38
2022-07-29T08:12:32.366Z,4.85
2022-07-29T08:14:58.766Z,4.93
2022-07-29T08:17:25.098Z,4.33
2022-07-29T08:19:51.460Z,4.85
2022-07-29T08:22:17.813Z,4.27
2022-07-29T08:24:44.132Z,4.67
2022-07-29T08:27:33.479Z,4.63
2022-07-29T08:29:58.337Z,4.82
2022-07-29T08:32:50.826Z,4.88
2022-07-29T08:35:11.109Z,4.75
2022-07-29T08:37:37.429Z,4.90
2022-07-29T08:40:03.983Z,4.32
2022-07-29T08:42:31.040Z,5.55
2022-07-29T08:44:57.793Z,5.05
2022-07-29T08:47:24.307Z,4.90
2022-07-29T08:49:51.569Z,4.93
2022-07-29T08:57:16.764Z,4.63
2022-07-29T08:59:45.490Z,5.00
2022-07-29T09:02:20.543Z,5.47
2022-07-29T09:04:49.338Z,4.85
2022-07-29T09:07:19.373Z,5.30
2022-07-29T09:09:45.929Z,5.35
2022-07-29T09:12:12.620Z,5.53
2022-07-29T09:14:39.803Z,5.18
2022-07-29T09:19:36.986Z,5.57
2022-07-29T09:22:07.120Z,4.97
2022-07-29T09:24:33.378Z,4.97
2022-07-29T09:27:01.718Z,5.65
2022-07-29T09:29:32.091Z,5.18
2022-07-29T09:32:00.929Z,5.32
2022-07-29T09:34:29.348Z,5.47
2022-07-29T09:36:56.525Z,5.25
2022-07-29T09:39:35.321Z,5.40
2022-07-29T09:42:03.460Z,5.18
2022-07-29T09:44:50.078Z,5.13
2022-07-29T09:47:17.219Z,5.30
2022-07-29T09:52:10.504Z,5.30
2022-07-29T09:54:40.135Z,5.70
2022-07-29T09:57:13.336Z,5.55
2022-07-29T09:59:50.209Z,5.43
2022-07-29T10:02:23.965Z,5.95
2022-07-29T10:04:50.587Z,4.90
2022-07-29T10:07:16.960Z,5.93
2022-07-29T10:10:04.715Z,6.80
2022-07-29T10:12:31.137Z,5.40
2022-07-29T10:14:57.607Z,5.53
2022-07-29T10:17:24.056Z,5.22
2022-07-29T10:19:50.540Z,6.18
2022-07-29T10:22:36.906Z,5.57
2022-07-29T10:25:03.956Z,5.43
2022-07-29T10:27:30.243Z,5.90
2022-07-29T10:29:59.315Z,6.28
2022-07-29T10:32:32.608Z,6.10
2022-07-29T10:34:58.975Z,6.18
2022-07-29T10:37:55.077Z,6.03
2022-07-29T10:41:03.383Z,6.07
2022-07-29T10:43:42.477Z,7.13
2022-07-29T10:46:09.340Z,6.20
2022-07-29T10:48:52.850Z,6.28
2022-07-29T10:51:20.763Z,6.38
2022-07-29T10:53:51.403Z,6.35
2022-07-29T10:56:27.816Z,6.32
2022-07-29T10:59:12.823Z,6.20
2022-07-29T11:01:39.427Z,5.95
2022-07-29T11:04:16.367Z,6.03
2022-07-29T11:07:03.813Z,6.38
2022-07-29T11:09:37.522Z,6.10
2022-07-29T11:12:05.059Z,6.05
2022-07-29T11:14:50.357Z,6.07
2022-07-29T11:17:16.727Z,5.47
2022-07-29T11:22:34.516Z,4.75
2022-07-29T11:25:17.077Z,5.85
2022-07-29T11:27:45.823Z,5.32
2022-07-29T11:30:15.502Z,5.30
2022-07-29T11:32:48.538Z,4.63
2022-07-29T11:35:17.061Z,5.00
2022-07-29T11:37:45.839Z,4.93
2022-07-29T11:40:22.965Z,5.38
2022-07-29T11:42:50.264Z,5.10
2022-07-29T11:45:43.489Z,5.07
2022-07-29T11:48:29.167Z,4.82
2022-07-29T11:50:58.368Z,4.10
2022-07-29T11:53:25.007Z,4.85
2022-07-29T11:55:55.749Z,4.22
2022-07-29T11:58:25.086Z,3.92
2022-07-29T12:00:52.750Z,4.20
2022-07-29T12:03:35.373Z,4.45
2022-07-29T12:07:03.555Z,4.38
2022-07-29T12:09:01.231Z,4.57
2022-07-29T12:13:54.350Z,4.80
2022-07-29T12:18:56.356Z,3.80
2022-07-29T12:21:25.713Z,3.85
2022-07-29T12:24:03.428Z,3.78
2022-07-29T12:26:34.228Z,3.88
2022-07-29T12:29:03.196Z,3.22
2022-07-29T12:31:43.140Z,3.47
2022-07-29T12:34:15.029Z,3.53
2022-07-29T12:36:42.390Z,3.42
2022-07-29T12:39:10.173Z,3.03
2022-07-29T12:41:36.574Z,3.85
2022-07-29T12:44:02.921Z,3.30
2022-07-29T12:46:29.307Z,3.88
2022-07-29T12:48:56.265Z,3.75
2022-07-29T12:51:37.468Z,3.88
2022-07-29T12:54:14.454Z,4.10
2022-07-29T12:56:43.702Z,3.38
2022-07-29T12:59:20.715Z,3.90
2022-07-29T13:01:48.959Z,3.55
2022-07-29T13:04:28.922Z,3.88
2022-07-29T13:07:02.350Z,3.90
2022-07-29T13:09:38.637Z,3.78
2022-07-29T13:12:09.259Z,4.30
2022-07-29T13:14:45.323Z,4.40
2022-07-29T13:17:13.172Z,3.65
2022-07-29T13:19:41.685Z,3.42
2022-07-29T13:22:11.694Z,4.30
2022-07-29T13:24:48.005Z,4.10
2022-07-29T13:27:14.982Z,3.70
2022-07-29T13:29:41.440Z,3.55
2022-07-29T13:32:08.417Z,3.72
2022-07-29T13:34:34.825Z,4.00
2022-07-29T13:37:01.182Z,3.47
2022-07-29T13:39:27.487Z,3.30
2022-07-29T13:41:53.873Z,3.95
2022-07-29T13:44:22.679Z,3.97
2022-07-29T13:46:52.318Z,4.57
2022-07-29T13:49:18.822Z,3.63
2022-07-29T13:51:45.182Z,4.03
2022-07-29T13:56:37.773Z,3.30
2022-07-29T13:59:04.109Z,3.83
2022-07-29T14:01:31.733Z,3.22
2022-07-29T14:04:01.085Z,3.22
2022-07-29T14:06:27.607Z,3.08
2022-07-29T14:08:56.292Z,3.47
2022-07-29T14:11:22.608Z,2.90
2022-07-29T14:13:52.042Z,3.33
2022-07-29T14:16:21.556Z,3.00
2022-07-29T14:18:47.952Z,3.25
2022-07-29T14:21:14.334Z,2.70
2022-07-29T14:23:42.411Z,2.33
2022-07-29T14:26:15.970Z,2.80
2022-07-29T14:28:51.328Z,2.35
2022-07-29T14:31:17.841Z,2.45
2022-07-29T14:33:44.289Z,2.40
2022-07-29T14:36:12.664Z,2.08
2022-07-29T14:38:39.651Z,2.33
2022-07-29T14:41:06.929Z,2.08
2022-07-29T14:43:33.985Z,1.77
2022-07-29T14:46:03.008Z,2.00
2022-07-29T14:48:31.590Z,2.17
2022-07-29T14:51:01.846Z,2.22
2022-07-29T14:53:31.060Z,2.10
2022-07-29T14:56:02.876Z,2.10
2022-07-29T14:58:49.152Z,2.30
2022-07-29T15:01:21.195Z,2.20
2022-07-29T15:03:49.607Z,1.95
2022-07-29T15:06:15.894Z,2.60
2022-07-29T15:08:45.136Z,2.22
2022-07-29T15:11:11.494Z,2.20
2022-07-29T15:13:37.893Z,2.60
2022-07-29T15:16:05.815Z,2.22
2022-07-29T15:18:32.254Z,2.42
2022-07-29T15:20:58.660Z,2.67
2022-07-29T15:23:25.037Z,2.20
2022-07-29T15:25:51.351Z,2.60
2022-07-29T15:28:19.942Z,2.60
2022-07-29T15:30:46.593Z,2.60
2022-07-29T15:33:13.052Z,2.40
2022-07-29T15:35:40.554Z,2.70
2022-07-29T15:38:07.433Z,2.42
2022-07-29T15:40:34.217Z,2.60
2022-07-29T15:43:06.447Z,2.45
2022-07-29T15:46:03.037Z,2.28
2022-07-29T15:48:29.446Z,2.53
2022-07-29T15:50:56.248Z,2.28
2022-07-29T15:53:22.658Z,2.30
2022-07-29T15:55:48.989Z,2.50
2022-07-29T15:58:15.402Z,2.72
2022-07-29T16:00:41.706Z,2.55
2022-07-29T16:03:08.549Z,2.35
2022-07-29T16:05:34.893Z,2.28
2022-07-29T16:08:01.875Z,2.22
2022-07-29T16:10:28.362Z,2.17
2022-07-29T16:12:54.732Z,2.00
2022-07-29T16:15:21.094Z,2.13
2022-07-29T16:17:47.690Z,1.92
2022-07-29T16:20:14.118Z,2.00
2022-07-29T16:22:40.922Z,2.35
2022-07-29T16:25:07.489Z,2.20
2022-07-29T16:27:35.525Z,2.03
2022-07-29T16:30:05.060Z,2.20
2022-07-29T16:32:34.579Z,2.38
2022-07-29T16:35:02.840Z,2.20
2022-07-29T16:37:33.505Z,2.28
2022-07-29T16:39:59.931Z,2.55
2022-07-29T16:42:45.612Z,2.75
2022-07-29T16:45:12.760Z,2.20
2022-07-29T16:47:39.178Z,2.30
2022-07-29T16:50:05.822Z,2.20
2022-07-29T16:52:32.289Z,2.28
2022-07-29T16:54:58.550Z,2.30
2022-07-29T16:59:51.271Z,2.45
2022-07-29T17:02:21.388Z,2.80
2022-07-29T17:04:55.292Z,2.25
2022-07-29T17:07:21.621Z,2.50
2022-07-29T17:09:50.544Z,2.30
2022-07-29T17:12:19.056Z,2.22
2022-07-29T17:14:45.468Z,2.33
2022-07-29T17:17:13.628Z,2.70
2022-07-29T17:19:40.336Z,2.20
2022-07-29T17:22:15.672Z,2.53
2022-07-29T17:24:45.452Z,2.40
2022-07-29T17:27:12.105Z,2.28
2022-07-29T17:29:40.139Z,2.22
2022-07-29T17:32:07.783Z,2.63
2022-07-29T17:34:34.981Z,2.60
2022-07-29T17:37:03.969Z,3.47
2022-07-29T17:39:31.639Z,2.80
2022-07-29T17:41:58.013Z,2.60
2022-07-29T17:44:24.361Z,2.20
2022-07-29T17:46:50.755Z,2.58
2022-07-29T17:49:21.080Z,2.50
2022-07-29T17:51:49.890Z,2.88
2022-07-29T17:54:16.228Z,2.92
2022-07-29T17:56:42.560Z,2.40
2022-07-29T17:59:10.143Z,2.03
2022-07-29T18:01:37.156Z,2.30
2022-07-29T18:04:03.653Z,2.50
2022-07-29T18:06:30.034Z,2.50
2022-07-29T18:08:56.408Z,2.67
2022-07-29T18:11:22.991Z,2.60
2022-07-29T18:13:49.363Z,2.72
2022-07-29T18:16:15.785Z,2.47
2022-07-29T18:18:43.856Z,2.60
2022-07-29T18:21:10.438Z,2.42
2022-07-29T18:23:36.875Z,2.35
2022-07-29T18:26:03.891Z,3.35
2022-07-29T18:28:30.366Z,2.97
2022-07-29T18:30:57.894Z,3.00
2022-07-29T18:33:24.377Z,2.42
2022-07-29T18:35:51.843Z,2.88
2022-07-29T18:38:22.070Z,3.95
2022-07-29T18:40:51.193Z,7.90
2022-07-29T18:43:19.831Z,8.73
2022-07-29T18:45:50.812Z,15.55
2022-07-29T18:48:19.674Z,13.45
2022-07-29T18:50:49.990Z,9.15
2022-07-29T18:53:16.452Z,11.00
2022-07-29T18:55:42.774Z,12.32
2022-07-29T18:58:09.098Z,14.40
2022-07-29T19:00:35.414Z,13.18
2022-07-29T19:03:05.127Z,16.90
2022-07-29T19:05:31.599Z,16.15
2022-07-29T19:07:57.928Z,16.50
2022-07-29T19:10:24.266Z,10.48
2022-07-29T19:12:50.572Z,5.70
2022-07-29T19:15:20.517Z,3.08
2022-07-29T19:17:48.059Z,2.78
2022-07-29T19:20:14.559Z,3.13
2022-07-29T19:22:40.856Z,2.67
2022-07-29T19:25:07.462Z,3.33
2022-07-29T19:27:33.778Z,3.85
2022-07-29T19:30:00.199Z,3.10
2022-07-29T19:32:26.667Z,2.88
2022-07-29T19:35:11.470Z,3.22
2022-07-29T19:37:37.861Z,2.90
2022-07-29T19:40:04.689Z,3.20
2022-07-29T19:44:57.247Z,2.63
2022-07-29T19:47:23.590Z,2.20
2022-07-29T19:49:49.939Z,2.58
2022-07-29T19:52:16.327Z,2.53
2022-07-29T19:54:42.640Z,3.22
2022-07-29T19:57:09.677Z,2.40
2022-07-29T19:59:36.194Z,2.95
2022-07-29T20:02:02.714Z,2.85
2022-07-29T20:04:29.226Z,3.00
2022-07-29T20:07:01.057Z,4.20
2022-07-29T20:09:30.282Z,4.78
2022-07-29T20:11:56.800Z,5.07
2022-07-29T20:14:23.755Z,4.45
2022-07-29T20:16:50.619Z,4.57
2022-07-29T20:21:44.635Z,3.88
2022-07-29T20:24:11.136Z,3.60
2022-07-29T20:26:37.633Z,3.38
2022-07-29T20:29:05.278Z,3.53
2022-07-29T20:31:34.951Z,3.22
2022-07-29T20:34:01.913Z,3.58
2022-07-29T20:38:54.947Z,5.00
2022-07-29T20:41:21.666Z,6.80
2022-07-29T20:43:50.902Z,7.15
2022-07-29T20:46:18.821Z,7.55
2022-07-29T20:48:46.902Z,8.60
2022-07-29T20:51:16.441Z,4.63
2022-07-29T20:53:42.826Z,4.25
2022-07-29T20:56:09.248Z,4.07
2022-07-29T20:58:36.291Z,3.10
2022-07-29T21:01:03.054Z,3.75
2022-07-29T21:03:29.545Z,3.30
2022-07-29T21:05:58.806Z,3.75
2022-07-29T21:08:25.782Z,3.15
2022-07-29T21:13:20.480Z,3.78
2022-07-29T21:15:51.610Z,4.70
2022-07-29T21:18:27.840Z,5.28
2022-07-29T21:20:54.839Z,4.88
2022-07-29T21:25:49.756Z,4.10
2022-07-29T21:28:29.397Z,3.95
2022-07-29T21:30:57.477Z,3.90
2022-07-29T21:33:24.019Z,4.50
2022-07-29T21:38:36.914Z,4.68
2022-07-29T21:41:03.963Z,4.15
2022-07-29T21:45:59.707Z,4.93
2022-07-29T21:48:26.876Z,4.65
2022-07-29T21:50:53.643Z,4.40
2022-07-29T21:53:23.009Z,5.15
2022-07-29T21:55:55.515Z,4.78
2022-07-29T21:58:22.770Z,4.38
2022-07-29T22:00:49.449Z,4.95
2022-07-29T22:03:16.007Z,5.43
2022-07-29T22:05:42.531Z,4.60
2022-07-29T22:08:09.004Z,5.15
2022-07-29T22:10:35.681Z,6.45
2022-07-29T22:13:02.269Z,5.82
2022-07-29T22:15:29.124Z,6.70
2022-07-29T22:17:55.447Z,7.10
2022-07-29T22:20:21.815Z,6.85
2022-07-29T22:22:51.227Z,7.07
2022-07-29T22:25:17.862Z,7.65
2022-07-29T22:27:46.646Z,7.50
2022-07-29T22:30:13.501Z,7.35
2022-07-29T22:32:39.869Z,7.40
2022-07-29T22:35:06.389Z,7.15
2022-07-29T22:37:32.920Z,7.43
2022-07-29T22:39:59.299Z,7.88
2022-07-29T22:42:25.718Z,7.20
2022-07-29T22:44:52.081Z,7.88
2022-07-29T22:47:46.223Z,7.45
2022-07-29T22:50:08.100Z,6.93
2022-07-29T22:52:34.481Z,7.38
2022-07-29T22:55:00.839Z,7.45
2022-07-29T22:57:27.359Z,7.70
2022-07-29T22:59:53.677Z,8.30
2022-07-29T23:02:20.009Z,7.75
2022-07-29T23:04:46.342Z,8.02
2022-07-29T23:07:12.694Z,7.75
2022-07-29T23:09:39.072Z,8.75
2022-07-29T23:12:05.474Z,7.70
2022-07-29T23:14:31.851Z,8.18
2022-07-29T23:16:58.608Z,8.25
2022-07-29T23:21:51.510Z,8.10
2022-07-29T23:24:17.853Z,8.60
2022-07-29T23:26:44.173Z,8.43
2022-07-29T23:29:10.518Z,8.60
2022-07-29T23:31:41.899Z,8.32
2022-07-29T23:36:42.146Z,8.73
2022-07-29T23:39:11.290Z,8.43
2022-07-29T23:41:37.725Z,9.25
2022-07-29T23:44:04.329Z,9.18
2022-07-29T23:46:30.653Z,9.15
2022-07-29T23:48:56.968Z,9.82
2022-07-29T23:51:23.353Z,9.98
2022-07-29T23:53:54.031Z,9.73
2022-07-29T23:56:25.898Z,10.00
2022-07-29T23:58:52.297Z,10.45
